Terminal Aerodrome Forecast
Issued by NWS

Home | Current Version | Previous Version | Text Only | Print | Product List | Glossary On
Versions: 1 2 3 4 5 6 7 8 9 10 11 12 13 14 15 16 17 18 19 20
000
FTUS43 KPAH 271509 AAA
TAFOWB
TAF AMD
KOWB 271509Z 2715/2812 15009KT 4SM -TSRA BR BKN020CB OVC040
      TEMPO 2715/2719 22010KT 1SM TSRA BR BKN010CB
     FM271900 20012G22KT P6SM VCSH BKN020
     FM272100 20012G22KT 3SM -TSRA BR OVC015CB
     FM280000 21007KT P6SM SCT020 BKN100
     FM280600 23003KT P6SM SCT100=

USA.gov is the U.S. government's official web portal to all federal, state and local government web resources and services.